^^

Nearby METAR Reports

 

EGHH - Bournemouth Airp, United Kingdom
Distance from station: S 10mi, 17km
Updated: 21/04/2018 22:50
NOT Current
Light rain, Partly cloudy
Light rain, Partly cloudy
 Wind from SSE
Wind: SSE 17 mph , 28 km/h
Temperature: 14°C
Dew Point: 12°C
Humidity: 88%
Barometer: 1014 hPa
Summary: Light rain
Clouds: Partly cloudy
Visibility: 6 miles , 10 km
2018/04/21 21:50 EGHH 212150Z 15015KT 9999 -RA NSC 14/12 Q1014
EGDM - Boscombe Down, United Kingdom
Distance from station: N 16mi, 26km
Updated: 22/04/2018 04:50
Partly cloudy
Partly cloudy
 Wind from SE
Wind: SE 8 mph , 13 km/h
Temperature: 12°C
Dew Point: 11°C
Humidity: 94%
Barometer: 1010 hPa
Clouds: Partly cloudy
Visibility: 6 miles , 10 km
Cloud details: Partly cloudy 1829 m
2018/04/22 03:50 EGDM 220350Z AUTO 14007KT 9999 SCT060/// 12/11 Q1010
 
EGVP - Middle Wallop, United Kingdom
Distance from station: NE 17mi, 27km
Updated: 22/04/2018 04:50
Clear
Clear
 Wind from E
Wind: E 6 mph , 9 km/h
Temperature: 14°C
Dew Point: 12°C
Humidity: 88%
Barometer: 1010 hPa
Clouds: Clear
Visibility: 6 miles , 10 km
2018/04/22 03:50 EGVP 220350Z AUTO 10005KT 9999 // NCD 14/12 Q1010
EGHI - Southampton Wx C, United Kingdom
Distance from station: E 19mi, 31km
Updated: 21/04/2018 21:50
NOT Current
Few Clouds
Few Clouds
 Wind from E
Wind: E 5 mph , 7 km/h
Temperature: 14°C
Dew Point: 12°C
Humidity: 88%
Barometer: 1014 hPa
Clouds: Few Clouds
Visibility: 6 miles , 10 km
Cloud details: Few Clouds 1219 m
2018/04/21 20:50 EGHI 212050Z 10004KT 070V150 9999 FEW040 14/12 Q1014
 
EGDY - Yeovilton (navy), United Kingdom
Distance from station: W 36mi, 58km
Updated: 22/04/2018 04:50
Clear
Clear
 Wind from E
Wind: E 3 mph , 6 km/h
Temperature: 11°C
Dew Point: 10°C
Humidity: 94%
Barometer: 1009 hPa
Clouds: Clear
Visibility: 6 miles , 10 km
2018/04/22 03:50 EGDY 220350Z AUTO 10003KT 9999 NCD 11/10 Q1009
EGUO - Colerne Raf, United Kingdom
Distance from station: NNW 41mi, 66km
Updated: 21/03/2018 08:50
NOT Current
Clear
Clear
 Wind from W
Wind: W 6 mph , 9 km/h
Temperature: 5°C
Wind Chill: 3°C
Dew Point: 1°C
Humidity: 76%
Barometer: 1032 hPa
Clouds: Clear
Visibility: 6 miles , 10 km
2018/03/21 08:50 EGUO 210850Z 27005KT 9999 NCD 05/01 Q1032 BLU NOSIG
 
EGVO - Odiham Raf, United Kingdom
Distance from station: ENE 42mi, 68km
Updated: 22/04/2018 04:50
Clear
Clear
 Wind from ESE
Wind: ESE 8 mph , 13 km/h
Temperature: 12°C
Dew Point: 11°C
Humidity: 94%
Barometer: 1010 hPa
Clouds: Clear
Visibility: 3 miles , 5 km
2018/04/22 03:50 EGVO 220350Z AUTO 12007KT 5000 NCD 12/11 Q1010
EGGD - Bristol/Lulsgate, United Kingdom
Distance from station: NW 50mi, 81km
Updated: 22/04/2018 05:20
Clear
Clear
 Wind from S
Wind: S 8 mph , 13 km/h
Temperature: 14°C
Dew Point: 10°C
Humidity: 77%
Barometer: 1009 hPa
Clouds: Clear
Visibility: 6 miles , 10 km
2018/04/22 04:20 EGGD 220420Z AUTO 17007KT 9999 NCD 14/10 Q1009